Time;durP1;ratioP1;P1;durP2;ratioP2;P2;SDS_P1;SDS_P2;PMS_P1;PMS_P2;Temp;Humidity;BMP_temperature;BMP_pressure;BME280_temperature;BME280_humidity;BME280_pressure;Samples;Min_cycle;Max_cycle;Signal;HPM_P1;HPM_P2
2022/04/20 00:02:00;;;;;;;94.13;44.93;;;;;;;4.51;62.55;100663.02;1758728;81;21530;-70
2022/04/20 00:04:26;;;;;;;90.92;44.40;;;;;;;4.54;62.58;100665.41;1758670;81;21244;-70
2022/04/20 00:06:52;;;;;;;86.60;42.20;;;;;;;4.58;62.60;100665.15;1758668;81;21093;-69
2022/04/20 00:09:18;;;;;;;87.40;43.92;;;;;;;4.59;62.64;100662.39;1758405;81;21150;-70
2022/04/20 00:11:46;;;;;;;81.67;42.45;;;;;;;4.62;62.65;100662.62;1758493;81;20995;-70
2022/04/20 00:14:12;;;;;;;87.12;41.88;;;;;;;4.63;62.66;100665.14;1758717;81;21046;-70
2022/04/20 00:16:38;;;;;;;91.90;42.50;;;;;;;4.64;62.68;100654.95;1758641;81;21065;-70
2022/04/20 00:19:04;;;;;;;76.33;39.27;;;;;;;4.63;62.75;100655.91;1758738;81;21068;-70
2022/04/20 00:21:30;;;;;;;89.40;42.48;;;;;;;4.64;62.79;100655.42;1758461;81;21057;-70
2022/04/20 00:23:56;;;;;;;76.72;39.45;;;;;;;4.65;62.83;100649.16;1758575;81;21042;-70
2022/04/20 00:26:22;;;;;;;70.15;34.45;;;;;;;4.68;62.87;100648.93;1758747;81;20899;-70
2022/04/20 00:28:48;;;;;;;68.83;33.10;;;;;;;4.73;62.90;100652.86;1758747;81;21019;-70
2022/04/20 00:31:14;;;;;;;63.83;32.30;;;;;;;4.77;62.94;100651.64;1758652;81;20990;-70
2022/04/20 00:33:40;;;;;;;53.20;28.20;;;;;;;4.82;62.98;100651.27;1758473;81;21132;-70
2022/04/20 00:36:06;;;;;;;54.58;29.37;;;;;;;4.86;62.99;100639.45;1758698;81;20972;-70
2022/04/20 00:38:33;;;;;;;48.20;26.93;;;;;;;4.91;63.00;100634.64;1714712;81;21463;-70
2022/04/20 00:40:58;;;;;;;47.60;26.45;;;;;;;4.95;63.00;100639.55;1758538;81;21680;-70
2022/04/20 00:43:25;;;;;;;70.83;37.13;;;;;;;5.00;63.00;100647.08;1739375;81;20995;-70
2022/04/20 00:45:51;;;;;;;73.25;37.78;;;;;;;5.02;62.96;100650.45;1758563;81;21139;-70
2022/04/20 00:48:17;;;;;;;72.45;36.90;;;;;;;5.00;62.96;100639.14;1758484;81;21034;-70
2022/04/20 00:50:43;;;;;;;66.10;34.67;;;;;;;5.00;62.97;100643.11;1758384;81;21067;-70
2022/04/20 00:53:09;;;;;;;64.53;34.25;;;;;;;5.01;62.96;100643.47;1758699;81;21512;-70
2022/04/20 00:55:35;;;;;;;65.20;34.38;;;;;;;5.04;62.92;100635.28;1757963;81;21085;-70
2022/04/20 00:58:01;;;;;;;59.83;32.80;;;;;;;5.05;62.89;100638.29;1758575;81;21049;-70
2022/04/20 01:00:29;;;;;;;69.40;34.03;;;;;;;5.06;62.86;100637.81;1758623;81;21018;-70
2022/04/20 01:02:55;;;;;;;64.20;34.20;;;;;;;5.04;62.79;100637.45;1739327;81;21522;-70
2022/04/20 01:05:22;;;;;;;67.08;34.73;;;;;;;5.03;62.77;100633.63;1785895;80;21432;-69
2022/04/20 01:07:48;;;;;;;66.70;34.78;;;;;;;5.00;62.75;100628.58;1789718;80;21030;-70
2022/04/20 01:10:14;;;;;;;61.02;32.38;;;;;;;5.01;62.72;100634.22;1789464;79;21497;-70
2022/04/20 01:12:45;;;;;;;61.45;33.35;;;;;;;5.02;62.68;100630.63;1790003;79;20895;-70
2022/04/20 01:15:12;;;;;;;65.72;33.92;;;;;;;5.01;62.65;100627.61;1790035;80;21438;-70
2022/04/20 01:17:39;;;;;;;59.03;32.38;;;;;;;4.99;62.63;100632.20;1789703;79;21015;-70
2022/04/20 01:20:14;;;;;;;62.27;33.60;;;;;;;4.99;62.58;100638.81;1789841;79;21484;-70
2022/04/20 01:22:41;;;;;;;67.20;34.88;;;;;;;4.99;62.56;100633.53;1789976;80;21027;-70
2022/04/20 01:25:08;;;;;;;67.65;37.73;;;;;;;4.98;62.55;100627.88;1789560;80;20983;-70
2022/04/20 01:27:35;;;;;;;65.75;37.28;;;;;;;5.00;62.54;100625.93;1789868;80;21429;-70
2022/04/20 01:30:02;;;;;;;71.72;37.75;;;;;;;4.98;62.52;100627.88;1789798;79;20987;-69
2022/04/20 01:32:28;;;;;;;77.00;37.20;;;;;;;4.95;62.52;100626.81;1789889;79;20976;-70
2022/04/20 01:34:54;;;;;;;68.12;38.73;;;;;;;4.95;62.52;100626.81;1789857;80;21131;-70
2022/04/20 01:37:21;;;;;;;65.03;36.90;;;;;;;4.93;62.53;100626.09;1789661;79;21003;-70
2022/04/20 01:39:47;;;;;;;67.53;34.60;;;;;;;4.92;62.56;100628.40;1789256;80;21026;-70
2022/04/20 01:42:13;;;;;;;57.98;34.10;;;;;;;4.90;62.60;100625.03;1789666;80;21512;-70
2022/04/20 01:44:39;;;;;;;54.88;32.05;;;;;;;4.89;62.62;100619.41;1789859;80;21480;-70
2022/04/20 01:47:06;;;;;;;60.67;34.08;;;;;;;4.90;62.69;100611.81;1789624;79;22101;-70
2022/04/20 01:49:32;;;;;;;58.58;32.70;;;;;;;4.92;62.73;100612.55;1789566;79;21051;-70
2022/04/20 01:51:58;;;;;;;60.92;30.23;;;;;;;4.93;62.78;100614.20;1789239;79;20962;-70
2022/04/20 01:54:24;;;;;;;58.58;30.20;;;;;;;4.95;62.84;100607.84;1790005;79;20962;-70
2022/04/20 01:56:51;;;;;;;58.25;29.42;;;;;;;4.98;62.88;100604.09;1789431;80;21010;-70
2022/04/20 01:59:18;;;;;;;52.70;27.98;;;;;;;5.02;62.93;100602.87;1789810;79;21918;-70
2022/04/20 02:04:28;;;;;;;45.83;27.62;;;;;;;5.12;63.00;100605.56;1789354;80;20999;-70
2022/04/20 02:06:55;;;;;;;51.15;27.10;;;;;;;5.17;63.01;100600.73;1789969;80;21034;-69
2022/04/20 02:09:21;;;;;;;45.75;27.30;;;;;;;5.20;63.02;100599.16;1770004;80;20999;-69
2022/04/20 02:11:47;;;;;;;52.20;30.50;;;;;;;5.24;63.03;100605.34;1789708;79;20984;-70
2022/04/20 02:14:13;;;;;;;60.23;33.30;;;;;;;5.27;63.02;100601.62;1789722;79;21034;-70
2022/04/20 02:16:39;;;;;;;65.57;35.73;;;;;;;5.27;63.00;100594.54;1789904;79;20982;-70
2022/04/20 02:19:05;;;;;;;61.48;35.78;;;;;;;5.24;63.00;100598.73;1789742;80;20979;-70
2022/04/20 02:21:31;;;;;;;58.23;33.67;;;;;;;5.21;62.99;100597.69;1789764;79;20999;-70
2022/04/20 02:23:57;;;;;;;60.83;32.53;;;;;;;5.19;63.00;100591.70;1789893;80;21149;-70
2022/04/20 02:26:23;;;;;;;49.67;30.02;;;;;;;5.19;62.98;100599.63;1789394;80;20891;-70
2022/04/20 02:28:49;;;;;;;56.45;32.40;;;;;;;5.20;62.99;100602.64;1789915;79;20979;-70
2022/04/20 02:31:16;;;;;;;59.88;32.58;;;;;;;5.21;62.97;100599.00;1789500;80;20979;-70
2022/04/20 02:33:43;;;;;;;55.95;32.17;;;;;;;5.21;62.94;100597.69;1789725;80;21074;-70
2022/04/20 02:36:10;;;;;;;53.78;31.68;;;;;;;5.22;62.90;100595.88;1789959;80;21147;-70
2022/04/20 02:38:36;;;;;;;44.77;28.17;;;;;;;5.23;62.88;100595.77;1789756;80;21018;-70
2022/04/20 02:41:02;;;;;;;43.00;26.73;;;;;;;5.24;62.86;100597.42;1789630;79;20987;-70
2022/04/20 02:43:28;;;;;;;43.25;26.17;;;;;;;5.24;62.82;100593.96;1789874;79;20971;-70
2022/04/20 02:45:57;;;;;;;37.60;24.77;;;;;;;5.24;62.79;100584.71;1790158;79;20975;-70
2022/04/20 02:48:23;;;;;;;40.73;24.90;;;;;;;5.24;62.74;100586.03;1790073;79;21133;-70
2022/04/20 02:50:49;;;;;;;40.23;23.83;;;;;;;5.25;62.72;100584.56;1789992;79;20973;-70
2022/04/20 02:53:15;;;;;;;31.10;20.25;;;;;;;5.27;62.68;100578.67;1789805;79;21024;-70
2022/04/20 02:55:44;;;;;;;37.08;23.20;;;;;;;5.28;62.65;100576.36;1789789;80;20971;-70
2022/04/20 02:58:10;;;;;;;39.30;22.82;;;;;;;5.30;62.62;100567.83;1789571;80;21128;-70
2022/04/20 03:00:36;;;;;;;34.05;21.37;;;;;;;5.31;62.60;100568.67;1789829;79;21148;-70
2022/04/20 03:03:02;;;;;;;33.58;21.52;;;;;;;5.31;62.59;100558.09;1789636;79;21034;-70
2022/04/20 03:05:28;;;;;;;33.28;20.85;;;;;;;5.30;62.57;100565.19;1789561;79;21015;-70
2022/04/20 03:07:54;;;;;;;39.75;22.17;;;;;;;5.30;62.57;100555.09;1789940;79;21031;-70
2022/04/20 03:10:22;;;;;;;32.85;20.75;;;;;;;5.28;62.58;100553.05;1789374;79;21003;-70
2022/04/20 03:12:49;;;;;;;33.45;20.55;;;;;;;5.23;62.60;100549.50;1789851;79;21186;-70
2022/04/20 03:15:16;;;;;;;38.90;22.95;;;;;;;5.21;62.62;100550.09;1789834;80;21046;-70
2022/04/20 03:17:42;;;;;;;40.85;22.70;;;;;;;5.19;62.62;100545.44;1789787;79;21046;-70
2022/04/20 03:20:08;;;;;;;38.20;20.15;;;;;;;5.18;62.67;100539.79;1789847;79;21038;-70
2022/04/20 03:22:34;;;;;;;41.05;20.57;;;;;;;5.18;62.71;100539.79;1789717;80;21408;-70
2022/04/20 03:25:01;;;;;;;30.35;18.87;;;;;;;5.17;62.73;100541.27;1789191;80;21121;-70
2022/04/20 03:27:27;;;;;;;33.73;19.07;;;;;;;5.15;62.78;100537.42;1789269;79;20991;-69
2022/04/20 03:29:53;;;;;;;29.75;18.87;;;;;;;5.17;62.82;100539.46;1789849;80;21003;-70
2022/04/20 03:32:19;;;;;;;26.05;17.52;;;;;;;5.17;62.85;100537.30;1789899;79;21511;-70
2022/04/20 03:34:45;;;;;;;28.25;18.12;;;;;;;5.19;62.88;100532.70;1789865;79;21452;-70
2022/04/20 03:37:11;;;;;;;26.37;18.10;;;;;;;5.20;62.89;100532.58;1789866;79;22140;-70
2022/04/20 03:39:37;;;;;;;29.07;18.98;;;;;;;5.22;62.91;100533.28;1789474;80;20976;-70
2022/04/20 03:42:04;;;;;;;32.17;19.80;;;;;;;5.23;62.93;100534.95;1789773;79;20955;-70
2022/04/20 03:44:31;;;;;;;30.72;19.20;;;;;;;5.24;62.93;100536.61;1789650;79;21042;-70
2022/04/20 03:46:57;;;;;;;32.67;19.52;;;;;;;5.26;62.94;100542.63;1789787;80;21030;-70
2022/04/20 03:49:23;;;;;;;34.98;19.55;;;;;;;5.28;62.91;100544.63;1789753;79;21058;-70
2022/04/20 03:51:49;;;;;;;29.27;19.07;;;;;;;5.28;62.91;100550.41;1789471;80;21491;-70
2022/04/20 03:54:15;;;;;;;31.10;19.82;;;;;;;5.28;62.88;100548.59;1789703;79;21562;-70
2022/04/20 03:59:27;;;;;;;43.92;25.92;;;;;;;5.24;62.87;100554.31;1789464;80;21104;-70
2022/04/20 04:01:53;;;;;;;43.52;25.30;;;;;;;5.17;62.90;100552.68;1789452;79;21168;-70
2022/04/20 04:04:21;;;;;;;43.35;27.58;;;;;;;5.06;62.91;100550.11;1789348;80;21006;-70
2022/04/20 04:06:47;;;;;;;46.02;29.50;;;;;;;4.97;62.96;100557.00;1789768;79;21446;-70
2022/04/20 04:09:13;;;;;;;52.15;32.65;;;;;;;4.92;62.99;100555.73;1789360;79;21479;-70
2022/04/20 04:11:39;;;;;;;48.50;31.00;;;;;;;4.89;63.04;100555.48;1789887;79;20990;-70
2022/04/20 04:14:05;;;;;;;53.40;27.62;;;;;;;4.89;63.10;100553.35;1789872;79;21108;-70
2022/04/20 04:16:36;;;;;;;45.58;26.40;;;;;;;4.89;63.10;100553.35;1789642;80;20988;-70
2022/04/20 04:18:59;;;;;;;55.92;26.95;;;;;;;4.89;63.12;100550.71;1789163;79;21518;-70
2022/04/20 04:21:25;;;;;;;44.25;24.15;;;;;;;4.90;63.13;100556.33;1789664;79;21015;-71
2022/04/20 04:23:51;;;;;;;39.08;22.27;;;;;;;4.92;63.17;100563.66;1789636;79;21011;-70
2022/04/20 04:26:18;;;;;;;39.53;22.95;;;;;;;4.95;63.18;100568.68;1789512;80;21320;-70
2022/04/20 04:28:44;;;;;;;36.13;21.17;;;;;;;4.98;63.18;100568.42;1789626;79;20971;-70
2022/04/20 04:31:10;;;;;;;38.75;21.77;;;;;;;4.98;63.20;100568.42;1789660;80;20934;-70
2022/04/20 04:33:36;;;;;;;40.38;21.80;;;;;;;4.98;63.20;100572.38;1789851;80;20968;-70
2022/04/20 04:36:02;;;;;;;32.60;20.45;;;;;;;5.01;63.21;100576.08;1789839;79;20869;-70
2022/04/20 04:38:28;;;;;;;34.50;19.67;;;;;;;5.02;63.21;100567.19;1789545;79;21173;-70
2022/04/20 04:40:54;;;;;;;43.78;21.42;;;;;;;5.04;63.25;100566.56;1789530;79;21003;-70
2022/04/20 04:43:20;;;;;;;35.10;19.65;;;;;;;5.08;63.27;100565.82;1789436;80;21034;-70
2022/04/20 04:48:38;;;;;;;38.48;19.45;;;;;;;5.11;63.27;100561.11;1789637;80;20971;-70
2022/04/20 04:51:05;;;;;;;31.77;18.82;;;;;;;5.12;63.30;100561.47;1794337;79;21519;-70
2022/04/20 04:53:31;;;;;;;35.70;18.30;;;;;;;5.15;63.32;100561.20;1798373;79;20975;-70
2022/04/20 04:55:57;;;;;;;43.42;20.92;;;;;;;5.15;63.32;100555.92;1798589;79;21027;-70
2022/04/20 04:58:23;;;;;;;36.17;20.30;;;;;;;5.16;63.34;100552.31;1798612;79;21026;-70
2022/04/20 05:00:49;;;;;;;39.98;19.52;;;;;;;5.20;63.35;100552.89;1798629;78;20968;-70
2022/04/20 05:03:16;;;;;;;32.40;18.52;;;;;;;5.23;63.41;100545.53;1798620;79;20995;-70
2022/04/20 05:05:45;;;;;;;31.37;17.75;;;;;;;5.25;63.40;100544.91;1796243;79;21058;-70
2022/04/20 05:08:11;;;;;;;30.85;18.40;;;;;;;5.26;63.39;100538.66;1798666;79;20995;-70
2022/04/20 05:10:37;;;;;;;33.45;19.05;;;;;;;5.27;63.41;100533.73;1798231;78;20974;-70
2022/04/20 05:13:06;;;;;;;32.28;17.37;;;;;;;5.31;63.40;100536.44;1799014;79;21112;-70
2022/04/20 05:15:33;;;;;;;31.85;19.30;;;;;;;5.36;63.43;100536.88;1798387;79;21162;-70
2022/04/20 05:18:00;;;;;;;29.77;18.57;;;;;;;5.42;63.45;100530.21;1798554;79;21042;-70
2022/04/20 05:20:26;;;;;;;29.27;18.42;;;;;;;5.46;63.45;100531.14;1798380;79;20979;-70
2022/04/20 05:22:52;;;;;;;35.80;18.73;;;;;;;5.49;63.48;100528.22;1798467;79;20860;-70
2022/04/20 05:25:18;;;;;;;41.73;22.70;;;;;;;5.51;63.50;100532.91;1798765;79;20907;-70
2022/04/20 05:27:44;;;;;;;34.33;19.98;;;;;;;5.54;63.50;100532.64;1798580;79;21089;-70
2022/04/20 05:30:13;;;;;;;41.53;21.70;;;;;;;5.58;63.52;100539.82;1798568;79;21030;-70
2022/04/20 05:32:39;;;;;;;38.95;22.70;;;;;;;5.58;63.55;100537.17;1798722;79;20975;-70
2022/04/20 05:35:06;;;;;;;37.33;20.68;;;;;;;5.59;63.58;100530.08;1798653;79;21476;-70
2022/04/20 05:43:00;;;;;;;35.08;20.45;;;;;;;5.65;63.66;100534.83;1798473;79;21578;-70
2022/04/20 05:45:27;;;;;;;32.25;18.07;;;;;;;5.74;63.70;100534.00;1798432;79;20967;-70
2022/04/20 05:47:53;;;;;;;36.80;19.12;;;;;;;5.80;63.69;100530.83;1798617;79;20975;-70
2022/04/20 05:50:19;;;;;;;31.45;16.65;;;;;;;5.86;63.74;100525.02;1798484;79;21101;-70
2022/04/20 05:52:45;;;;;;;34.65;18.92;;;;;;;5.90;63.75;100527.27;1798309;79;21188;-70
2022/04/20 05:55:10;;;;;;;31.37;17.42;;;;;;;5.97;63.79;100521.77;1799004;79;20958;-70
2022/04/20 05:57:37;;;;;;;33.25;16.42;;;;;;;6.07;63.80;100525.75;1798714;79;21472;-70
2022/04/20 06:00:07;;;;;;;28.65;16.05;;;;;;;6.15;63.83;100531.20;1798714;79;21031;-70
2022/04/20 06:02:33;;;;;;;27.40;16.30;;;;;;;6.24;63.87;100517.59;1781126;79;21068;-70
2022/04/20 06:05:00;;;;;;;37.05;18.50;;;;;;;6.35;63.91;100520.95;1767140;80;21152;-70
2022/04/20 06:07:27;;;;;;;35.45;18.15;;;;;;;6.47;63.89;100520.33;1778594;80;21455;-70
2022/04/20 06:09:53;;;;;;;31.30;15.72;;;;;;;6.55;63.88;100529.70;1788192;79;21006;-70
2022/04/20 06:12:22;;;;;;;29.20;17.90;;;;;;;6.59;63.85;100527.12;1766940;81;21569;-70
2022/04/20 06:14:48;;;;;;;51.53;24.97;;;;;;;6.59;63.86;100523.64;1782496;79;21041;-70
2022/04/20 06:17:14;;;;;;;70.40;30.23;;;;;;;6.60;63.86;100517.37;1787822;79;21480;-70
2022/04/20 06:19:40;;;;;;;24.82;14.15;;;;;;;6.64;63.88;100530.20;1790907;79;21435;-67
2022/04/20 06:22:06;;;;;;;27.32;14.55;;;;;;;6.66;63.85;100525.58;1766343;81;21118;-67
2022/04/20 06:24:32;;;;;;;31.85;17.62;;;;;;;6.63;63.87;100522.38;1796007;79;21042;-67
2022/04/20 06:26:58;;;;;;;26.85;16.23;;;;;;;6.61;63.89;100527.00;1796864;79;21435;-67
2022/04/20 06:29:24;;;;;;;43.35;22.50;;;;;;;6.60;63.90;100533.27;1794256;79;21084;-67
2022/04/20 06:31:51;;;;;;;33.10;17.62;;;;;;;6.61;63.93;100541.58;1794356;79;21464;-67
2022/04/20 06:34:19;;;;;;;28.42;16.27;;;;;;;6.63;63.95;100535.63;1796613;79;21109;-67
2022/04/20 06:36:45;;;;;;;23.83;15.43;;;;;;;6.64;64.00;100528.03;1773375;79;21452;-70
2022/04/20 06:39:11;;;;;;;27.45;15.23;;;;;;;6.66;64.06;100525.58;1767086;79;21098;-70
2022/04/20 06:41:37;;;;;;;28.20;17.73;;;;;;;6.67;64.11;100521.97;1764713;80;21068;-70
2022/04/20 06:44:03;;;;;;;25.77;16.02;;;;;;;6.67;64.22;100522.45;1764911;80;21027;-71
2022/04/20 06:46:29;;;;;;;26.60;16.10;;;;;;;6.69;64.31;100520.48;1765079;81;21405;-70
2022/04/20 06:48:55;;;;;;;32.48;19.82;;;;;;;6.68;64.43;100518.83;1739575;81;21007;-71
2022/04/20 06:51:22;;;;;;;27.52;17.30;;;;;;;6.67;64.55;100513.17;1768399;79;21028;-71
2022/04/20 06:59:16;;;;;;;36.65;20.08;;;;;;;6.62;65.00;100506.13;1802799;78;20995;-70
2022/04/20 07:01:42;;;;;;;27.65;16.40;;;;;;;6.63;65.19;100506.48;1730436;82;21023;-70
2022/04/20 07:04:08;;;;;;;28.40;16.95;;;;;;;6.72;65.32;100508.30;1785655;80;20876;-71
2022/04/20 07:06:34;;;;;;;39.42;18.87;;;;;;;6.74;65.41;100511.14;1807988;78;21118;-70
2022/04/20 07:09:00;;;;;;;37.17;22.62;;;;;;;6.74;65.53;100504.52;1750778;81;21056;-71
2022/04/20 07:11:28;;;;;;;24.67;16.32;;;;;;;6.76;65.64;100507.01;1754050;81;21012;-71
2022/04/20 07:13:57;;;;;;;21.02;13.38;;;;;;;6.80;65.79;100513.70;1758818;81;21478;-70
2022/04/20 07:16:23;;;;;;;24.00;15.78;;;;;;;6.78;65.92;100503.74;1776157;79;21003;-70
2022/04/20 07:18:49;;;;;;;28.40;16.85;;;;;;;6.77;66.02;100500.73;1797792;79;21026;-71
2022/04/20 07:21:16;;;;;;;28.80;14.93;;;;;;;6.82;66.15;100497.18;1769077;80;21022;-70
2022/04/20 07:23:42;;;;;;;28.95;16.12;;;;;;;6.81;66.28;100492.36;1771263;80;21494;-70
2022/04/20 07:26:08;;;;;;;40.73;18.42;;;;;;;6.85;66.40;100495.56;1781236;79;21078;-71
2022/04/20 07:28:34;;;;;;;37.88;20.82;;;;;;;6.89;66.55;100484.54;1772606;79;20999;-70
2022/04/20 07:31:02;;;;;;;49.60;30.17;;;;;;;6.96;66.71;100489.61;1785280;78;21097;-70
2022/04/20 07:33:28;;;;;;;44.70;26.52;;;;;;;7.06;66.85;100488.73;1794572;79;21597;-70
2022/04/20 07:35:54;;;;;;;30.57;17.95;;;;;;;7.15;67.00;100494.47;1781830;78;21026;-71
2022/04/20 07:38:24;;;;;;;18.82;13.30;;;;;;;7.18;67.14;100491.04;1788168;80;21022;-70
2022/04/20 07:40:48;;;;;;;24.50;13.98;;;;;;;7.23;67.26;100486.62;1774297;80;21455;-70
2022/04/20 07:43:15;;;;;;;26.62;14.93;;;;;;;7.26;67.38;100492.48;1794476;80;22100;-70
2022/04/20 07:45:41;;;;;;;22.20;11.28;;;;;;;7.30;67.53;100488.56;1776595;80;21012;-71
2022/04/20 07:48:07;;;;;;;31.75;14.03;;;;;;;7.28;67.67;100490.50;1775547;79;20922;-70
2022/04/20 07:50:33;;;;;;;29.55;13.30;;;;;;;7.23;67.80;100488.80;1768521;79;21063;-72
2022/04/20 07:53:00;;;;;;;27.60;12.47;;;;;;;7.22;67.94;100491.09;1796125;79;20991;-70
2022/04/20 07:55:29;;;;;;;25.43;11.65;;;;;;;7.21;68.06;100485.47;1791553;79;21121;-70
2022/04/20 07:57:57;;;;;;;22.55;10.08;;;;;;;7.19;68.19;100479.94;1762473;80;21126;-70
2022/04/20 08:00:23;;;;;;;48.30;17.85;;;;;;;7.07;68.35;100479.31;1746900;81;21018;-70
2022/04/20 08:02:50;;;;;;;24.05;10.00;;;;;;;7.03;68.53;100476.12;1749885;81;21015;-70
2022/04/20 08:05:19;;;;;;;19.40;9.25;;;;;;;7.10;68.66;100480.83;1734879;81;21046;-71
2022/04/20 08:07:45;;;;;;;17.30;8.57;;;;;;;7.10;68.76;100481.67;1760480;81;21175;-70
2022/04/20 08:10:12;;;;;;;15.75;9.53;;;;;;;7.08;68.86;100480.96;1755363;80;21430;-70
2022/04/20 08:12:44;;;;;;;15.10;7.20;;;;;;;7.04;68.97;100484.88;1748605;81;21038;-70
2022/04/20 08:15:11;;;;;;;14.98;7.45;;;;;;;6.98;69.09;100482.33;1735379;81;21715;-70
2022/04/20 08:17:37;;;;;;;13.53;8.25;;;;;;;6.94;69.23;100484.08;1743155;81;21058;-70
2022/04/20 08:20:05;;;;;;;13.32;7.78;;;;;;;6.88;69.36;100484.19;1751785;81;21105;-70
2022/04/20 08:22:31;;;;;;;13.62;9.80;;;;;;;6.88;69.49;100479.37;1739121;81;21062;-70
2022/04/20 08:24:59;;;;;;;17.67;11.93;;;;;;;6.86;69.59;100472.88;1730868;81;21061;-70
2022/04/20 08:27:25;;;;;;;10.03;6.85;;;;;;;6.89;69.70;100478.40;1753218;81;21051;-70
2022/04/20 08:29:51;;;;;;;14.13;8.18;;;;;;;6.87;69.83;100479.02;1758659;81;21456;-70
2022/04/20 08:32:18;;;;;;;15.20;9.45;;;;;;;6.81;69.95;100475.62;1741912;81;21198;-71
2022/04/20 08:34:45;;;;;;;16.48;9.25;;;;;;;6.76;70.07;100471.23;1729527;81;21093;-71
2022/04/20 08:37:11;;;;;;;15.65;8.70;;;;;;;6.72;70.23;100465.90;1729391;83;21554;-71
2022/04/20 08:39:39;;;;;;;11.70;8.20;;;;;;;6.70;70.36;100463.86;1729696;83;21553;-71
2022/04/20 08:42:12;;;;;;;11.38;7.60;;;;;;;6.63;70.53;100470.71;1729199;83;21042;-71
2022/04/20 08:44:37;;;;;;;27.27;16.42;;;;;;;6.58;70.70;100460.53;1729836;81;22076;-71
2022/04/20 08:47:05;;;;;;;12.60;8.45;;;;;;;6.62;70.87;100459.76;1729643;83;21460;-72
2022/04/20 08:49:31;;;;;;;10.78;6.55;;;;;;;6.63;71.00;100460.11;1736830;81;21478;-71
2022/04/20 08:54:43;;;;;;;9.30;6.85;;;;;;;6.56;71.26;100461.66;1758392;79;21044;-72
2022/04/20 08:57:15;;;;;;;13.15;7.60;;;;;;;6.52;71.44;100456.66;1737873;79;21209;-72
2022/04/20 08:59:43;;;;;;;15.50;8.63;;;;;;;6.55;71.56;100454.20;1733330;82;21091;-72
2022/04/20 09:02:11;;;;;;;17.17;9.40;;;;;;;6.61;71.67;100452.81;1761429;80;21536;-72
2022/04/20 09:04:37;;;;;;;11.83;7.62;;;;;;;6.67;71.81;100454.88;1766651;80;21026;-71
2022/04/20 09:07:04;;;;;;;9.95;7.35;;;;;;;6.72;71.91;100452.64;1765529;80;21117;-72
2022/04/20 09:09:30;;;;;;;13.30;9.18;;;;;;;6.74;72.03;100454.65;1758104;80;21320;-72
2022/04/20 09:12:00;;;;;;;13.13;8.30;;;;;;;6.76;72.12;100450.02;1764973;79;20899;-72
2022/04/20 09:14:30;;;;;;;18.43;10.33;;;;;;;6.85;72.24;100442.55;1782635;80;21031;-72
2022/04/20 09:16:58;;;;;;;17.73;10.85;;;;;;;6.90;72.33;100440.28;1788877;80;21440;-72
2022/04/20 09:19:25;;;;;;;13.50;8.73;;;;;;;6.92;72.47;100433.87;1788496;79;21042;-72
2022/04/20 09:21:55;;;;;;;12.35;8.68;;;;;;;6.95;72.59;100430.09;1763474;80;21023;-72
2022/04/20 09:24:21;;;;;;;17.82;9.43;;;;;;;6.91;72.65;100431.36;1766538;80;21025;-72
2022/04/20 09:26:53;;;;;;;16.35;9.18;;;;;;;6.95;72.76;100426.11;1772889;80;20980;-72
2022/04/20 09:29:20;;;;;;;33.90;19.75;;;;;;;6.95;72.87;100424.79;1763228;79;21045;-71
2022/04/20 09:31:48;;;;;;;42.85;22.37;;;;;;;6.97;72.99;100424.14;1779370;80;21038;-72
2022/04/20 09:34:35;;;;;;;23.62;13.75;;;;;;;6.97;73.05;100430.77;1787430;80;21039;-72
2022/04/20 09:37:15;;;;;;;34.83;17.45;;;;;;;7.01;73.18;100429.50;1759643;80;21013;-72
2022/04/20 09:39:46;;;;;;;26.73;12.28;;;;;;;7.08;73.29;100429.26;1759127;80;21015;-72
2022/04/20 09:42:14;;;;;;;32.23;14.73;;;;;;;7.08;73.36;100423.95;1757410;80;21095;-71
2022/04/20 09:45:00;;;;;;;25.95;13.20;;;;;;;7.18;73.48;100419.44;1757620;81;21041;-71
2022/04/20 09:50:23;;;;;;;22.62;10.75;;;;;;;7.23;73.63;100422.98;1778393;80;21042;-70
2022/04/20 09:52:54;;;;;;;12.80;7.25;;;;;;;7.20;73.70;100414.83;1756983;81;21015;-70
2022/04/20 09:55:33;;;;;;;;;;;;;;;7.20;73.77;100415.32;1758164;81;21041;-70
2022/04/20 09:58:20;;;;;;;28.17;17.02;;;;;;;7.13;73.88;100406.28;1754324;81;20172;-70
2022/04/20 10:00:48;;;;;;;23.90;12.47;;;;;;;7.06;73.97;100406.05;1730466;81;21161;-70
2022/04/20 10:03:29;;;;;;;39.20;14.25;;;;;;;6.97;74.06;100401.61;1746428;82;21087;-70
2022/04/20 10:05:56;;;;;;;25.82;11.75;;;;;;;6.92;74.15;100405.20;1751089;81;21057;-69
2022/04/20 10:08:23;;;;;;;32.15;16.12;;;;;;;6.93;74.26;100405.55;1790292;78;21006;-69
2022/04/20 10:10:51;;;;;;;20.25;10.55;;;;;;;6.92;74.31;100402.55;1820825;78;21034;-70
2022/04/20 10:13:17;;;;;;;17.62;9.43;;;;;;;6.90;74.39;100404.02;1762821;80;21839;-70
2022/04/20 10:16:09;;;;;;;10.53;7.25;;;;;;;6.90;74.46;100401.84;1754996;80;21022;-70
2022/04/20 10:18:37;;;;;;;13.45;9.53;;;;;;;6.86;74.55;100402.63;1742086;81;21122;-70
2022/04/20 10:21:04;;;;;;;13.88;8.53;;;;;;;6.83;74.65;100404.73;1785315;80;21061;-70
2022/04/20 10:23:30;;;;;;;11.30;8.00;;;;;;;6.79;74.72;100401.55;1780173;80;21128;-70
2022/04/20 10:25:59;;;;;;;17.32;9.13;;;;;;;6.76;74.82;100398.34;1771101;80;21446;-70
2022/04/20 10:29:10;;;;;;;13.08;7.92;;;;;;;6.76;74.91;100391.23;1753637;80;21069;-72
2022/04/20 10:31:47;;;;;;;10.10;7.50;;;;;;;6.75;74.98;100394.05;1761887;80;21084;-72
2022/04/20 10:34:17;;;;;;;15.53;8.75;;;;;;;6.75;75.09;100390.91;1766770;78;20988;-72
2022/04/20 10:37:04;;;;;;;16.48;9.33;;;;;;;6.77;75.16;100386.77;1754040;81;21030;-71
2022/04/20 10:39:39;;;;;;;14.50;7.70;;;;;;;6.77;75.26;100378.83;1750083;82;21129;-73
2022/04/20 10:42:21;;;;;;;23.42;10.43;;;;;;;6.80;75.33;100377.20;1750120;82;21034;-73
2022/04/20 10:45:04;;;;;;;18.80;10.40;;;;;;;6.77;75.38;100369.06;1749246;82;21008;-73
2022/04/20 10:47:36;;;;;;;20.00;13.72;;;;;;;6.74;75.45;100374.66;1750220;82;21486;-72
2022/04/20 10:50:17;;;;;;;22.98;11.80;;;;;;;6.70;75.54;100364.00;1731675;82;21504;-72
2022/04/20 10:53:03;;;;;;;68.07;54.58;;;;;;;6.69;75.60;100360.16;1731809;81;21983;-72
2022/04/20 10:55:38;;;;;;;17.02;12.80;;;;;;;6.71;75.65;100364.36;1731967;82;21295;-72
2022/04/20 10:58:07;;;;;;;21.25;15.43;;;;;;;6.70;75.73;100359.19;1732339;82;21032;-73
2022/04/20 11:00:35;;;;;;;30.27;20.08;;;;;;;6.71;75.79;100351.59;1730295;82;20981;-72
2022/04/20 11:03:10;;;;;;;17.00;11.18;;;;;;;6.74;75.85;100344.67;1732173;82;20989;-72
2022/04/20 11:05:55;;;;;;;9.58;6.78;;;;;;;6.79;75.90;100341.10;1732079;82;21068;-73
2022/04/20 11:08:22;;;;;;;14.05;6.03;;;;;;;6.82;75.95;100338.16;1731690;82;21088;-72
2022/04/20 11:19:20;;;;;;;9.20;6.15;;;;;;;6.80;76.25;100328.17;1732082;82;21118;-73
2022/04/20 11:21:53;;;;;;;9.43;6.17;;;;;;;6.78;76.33;100327.02;1731989;82;21486;-72
2022/04/20 11:24:27;;;;;;;8.85;5.95;;;;;;;6.73;76.39;100325.77;1731968;82;21028;-72
2022/04/20 11:26:54;;;;;;;9.88;5.83;;;;;;;6.74;76.45;100332.74;1703027;82;21061;-72
2022/04/20 11:29:25;;;;;;;11.70;7.03;;;;;;;6.80;76.52;100333.47;1732147;82;21033;-72
2022/04/20 11:32:00;;;;;;;8.55;6.42;;;;;;;6.82;76.58;100320.92;1732022;82;21147;-72
2022/04/20 11:34:28;;;;;;;13.75;7.95;;;;;;;6.84;76.67;100325.09;1731490;82;20963;-72
2022/04/20 11:36:56;;;;;;;9.23;6.45;;;;;;;6.85;76.76;100319.30;1731960;82;21572;-72
2022/04/20 11:39:24;;;;;;;9.25;6.58;;;;;;;6.85;76.82;100314.00;1731961;82;21028;-72
2022/04/20 11:41:57;;;;;;;55.90;33.08;;;;;;;6.84;76.89;100313.64;1732059;82;21016;-72
2022/04/20 11:44:31;;;;;;;27.50;11.60;;;;;;;6.89;76.97;100310.08;1731318;82;21715;-72
2022/04/20 11:47:07;;;;;;;11.30;7.45;;;;;;;6.95;77.05;100312.96;1731951;82;20978;-72
2022/04/20 11:49:41;;;;;;;12.25;6.58;;;;;;;7.02;77.14;100303.91;1732094;82;20992;-72
2022/04/20 11:52:09;;;;;;;9.13;5.72;;;;;;;7.15;77.22;100299.07;1731925;82;21012;-73
2022/04/20 11:54:36;;;;;;;12.80;6.47;;;;;;;7.24;77.28;100300.84;1758341;81;21087;-73
2022/04/20 11:57:15;;;;;;;7.78;5.30;;;;;;;7.27;77.30;100294.39;1732742;82;21149;-73